This is the latest recevied weather packets stored in our database for station/object ENBN. If no packets are shown the sender has not sent any weather packets the latest 1 day(s).
| Time | Temp. | Humidity | Pressure | Rain* | Wind** | Luminosity | Snow |
|---|---|---|---|---|---|---|---|
| 1778014986 | 1.67° C | 93% | 1005 hPa | - | 3.13 m/s, 270° | - | - |
| 1778013186 | 2.78° C | 86% | 1005 hPa | - | 5.81 m/s, 250° | - | - |
| 1778011386 | 2.78° C | 93% | 1005 hPa | - | 7.15 m/s, 250° | - | - |
| 1778009586 | 2.78° C | 86% | 1005 hPa | - | 7.6 m/s, 250° | - | - |
| 1778007786 | 2.78° C | 93% | 1005 hPa | - | 7.15 m/s, 230° | - | - |
| 1778005986 | 1.67° C | 93% | 1005 hPa | - | 7.6 m/s, 250° | - | - |
| 1778004187 | 2.78° C | 80% | 1005 hPa | - | 8.05 m/s, 270° | - | - |
| 1778002387 | 2.78° C | 80% | 1005 hPa | - | 6.71 m/s, 270° | - | - |
| 1778000587 | 3.89° C | 80% | 1005 hPa | - | 4.47 m/s, 280° | - | - |
| 1777998787 | 5° C | 70% | 1005 hPa | - | 5.36 m/s, 260° | - | - |
| 1777996987 | 5° C | 70% | 1005 hPa | - | 6.26 m/s, 240° | - | - |
| 1777995187 | 5° C | 75% | 1005 hPa | - | 5.81 m/s, 230° | - | - |
| 1777993386 | 2.78° C | 80% | 1005 hPa | - | 6.71 m/s, 280° | - | - |
| 1777991587 | 5° C | 70% | 1005 hPa | - | 6.71 m/s, 270° | - | - |
| 1777989787 | 5° C | 65% | 1004 hPa | - | 6.26 m/s, 260° | - | - |
| 1777987987 | 5.56° C | 60% | 1004 hPa | - | 6.26 m/s, 250° | - | - |
| 1777986187 | 5.56° C | 65% | 1005 hPa | - | 5.81 m/s, 240° | - | - |
| 1777984386 | 5° C | 70% | 1004 hPa | - | 5.36 m/s, 250° | - | - |
| 1777982586 | 5.56° C | 60% | 1004 hPa | - | 5.36 m/s, 250° | - | - |
| 1777980787 | 5° C | 70% | 1004 hPa | - | 6.71 m/s, 250° | - | - |
| 1777978987 | 5° C | 70% | 1004 hPa | - | 6.26 m/s, 250° | - | - |
| 1777977186 | 5° C | 70% | 1004 hPa | - | 4.47 m/s, 220° | - | - |
* Rain since midnight (hover to see other rain measurements)
** Current wind speed in m/s (hover to see current wind gust speed)